Time;durP1;ratioP1;P1;durP2;ratioP2;P2;SDS_P1;SDS_P2;PMS_P1;PMS_P2;Temp;Humidity;BMP_temperature;BMP_pressure;BME280_temperature;BME280_humidity;BME280_pressure;Samples;Min_cycle;Max_cycle;Signal;HPM_P1;HPM_P2
2021/12/25 00:06:10;;;;;;;;;;;;;;;;;;;;;
2021/12/25 00:17:26;;;;;;;;;;;;;;;;;;;;;
2021/12/25 00:28:35;;;;;;;4.90;2.78;;;-0.30;99.90;;;;;;4814002;29;20061;-95
2021/12/25 00:36:14;;;;;;;8.55;2.97;;;-0.50;99.90;;;;;;5101140;27;20107;-96
2021/12/25 00:38:54;;;;;;;;;;;;;;;;;;;;;
2021/12/25 00:41:28;;;;;;;8.38;2.50;;;-0.50;99.90;;;;;;5110528;27;20054;-96
2021/12/25 00:43:57;;;;;;;10.10;2.60;;;-0.70;99.90;;;;;;5086075;27;20695;-96
2021/12/25 00:46:31;;;;;;;8.68;2.45;;;-0.60;99.90;;;;;;5088863;27;20575;-95
2021/12/25 00:48:57;;;;;;;9.18;2.70;;;-0.70;99.90;;;;;;5084692;27;20051;-96
2021/12/25 00:51:38;;;;;;;7.90;3.30;;;-0.60;99.90;;;;;;5089339;27;20043;-96
2021/12/25 01:30:27;;;;;;;7.82;1.83;;;-1.00;99.90;;;;;;4833553;29;20451;-96
2021/12/25 01:33:33;;;;;;;6.90;2.25;;;-1.20;99.90;;;;;;4842195;29;20046;-96
2021/12/25 01:36:36;;;;;;;7.13;1.77;;;-1.10;99.90;;;;;;4830591;29;20105;-96
2021/12/25 01:42:01;;;;;;;6.35;1.80;;;-1.20;99.90;;;;;;4836400;29;20034;-96
2021/12/25 01:47:49;;;;;;;4.78;1.80;;;-1.30;99.90;;;;;;5121052;27;20099;-95
2021/12/25 01:50:23;;;;;;;8.00;1.98;;;-1.40;99.90;;;;;;5109023;27;20070;-96
2021/12/25 01:52:49;;;;;;;4.13;1.88;;;-1.40;99.90;;;;;;5106618;27;20039;-96
2021/12/25 01:55:21;;;;;;;6.90;2.00;;;-1.50;99.90;;;;;;5102788;27;20047;-96
2021/12/25 01:58:03;;;;;;;5.00;1.70;;;-1.50;99.90;;;;;;5104992;27;20067;-96
2021/12/25 02:00:56;;;;;;;8.13;1.90;;;-1.60;99.90;;;;;;5118633;27;20560;-96
2021/12/25 02:03:37;;;;;;;5.78;2.08;;;-1.60;99.90;;;;;;5101296;27;20046;-96
2021/12/25 02:06:12;;;;;;;5.20;2.00;;;-1.60;99.90;;;;;;5098795;27;20042;-96
2021/12/25 02:08:59;;;;;;;5.63;2.30;;;-1.60;99.90;;;;;;5100030;27;20106;-96
2021/12/25 02:11:57;;;;;;;5.63;2.05;;;-1.60;99.90;;;;;;5101409;27;20073;-96
2021/12/25 02:15:05;;;;;;;;;;;;;;;;;;;;;
2021/12/25 02:24:40;;;;;;;;;;;;;;;;;;;;;
2021/12/25 02:28:01;;;;;;;7.80;2.45;;;-1.90;99.90;;;;;;5072226;28;20041;-96
2021/12/25 02:30:33;;;;;;;3.00;1.83;;;-1.90;99.90;;;;;;5034916;28;20063;-96
2021/12/25 02:33:21;;;;;;;5.70;1.60;;;-1.80;99.90;;;;;;5037594;28;20048;-96
2021/12/25 02:35:59;;;;;;;6.75;1.83;;;-1.90;99.90;;;;;;5034519;28;20049;-96
2021/12/25 02:38:29;;;;;;;9.60;2.65;;;-2.00;99.90;;;;;;5035061;28;20127;-95
2021/12/25 02:41:38;;;;;;;10.35;1.98;;;-2.00;99.90;;;;;;5038532;28;20036;-95
2021/12/25 03:17:34;;;;;;;;;;;-2.40;99.90;;;;;;4892847;29;20054;-94
2021/12/25 03:20:08;;;;;;;4.40;2.20;;;-2.40;99.90;;;;;;4919664;29;19938;-94
2021/12/25 03:22:59;;;;;;;3.88;1.73;;;-2.40;99.90;;;;;;4920537;29;20040;-94
2021/12/25 03:25:35;;;;;;;5.05;2.17;;;-2.40;99.90;;;;;;4926294;29;20161;-95
2021/12/25 03:28:29;;;;;;;3.90;1.88;;;-2.50;99.90;;;;;;4893344;29;20110;-95
2021/12/25 03:31:05;;;;;;;4.60;1.98;;;-2.40;99.90;;;;;;4894827;29;20204;-95
2021/12/25 03:33:50;;;;;;;3.92;1.70;;;-2.50;99.90;;;;;;4913283;28;20051;-95
2021/12/25 03:36:16;;;;;;;3.30;1.80;;;-2.60;99.90;;;;;;5012899;28;20045;-94
2021/12/25 03:38:44;;;;;;;5.65;1.80;;;-2.50;99.90;;;;;;5058800;28;20395;-94
2021/12/25 03:41:10;;;;;;;5.65;1.80;;;-2.50;99.90;;;;;;5080138;28;20032;-94
2021/12/25 03:43:39;;;;;;;1.63;1.52;;;-2.60;99.90;;;;;;5072943;27;20109;-94
2021/12/25 03:46:06;;;;;;;1.80;1.70;;;-2.70;99.90;;;;;;5097622;27;20039;-94
2021/12/25 03:59:13;;;;;;;3.97;1.67;;;-2.80;99.90;;;;;;5098546;27;20039;-93
2021/12/25 04:04:17;;;;;;;1.85;1.50;;;-2.90;99.90;;;;;;5096845;27;20432;-92
2021/12/25 04:06:50;;;;;;;2.15;1.60;;;-2.90;99.90;;;;;;5082456;27;20052;-93
2021/12/25 04:09:28;;;;;;;2.55;1.95;;;-2.90;99.90;;;;;;5084808;27;20047;-94
2021/12/25 04:11:55;;;;;;;4.65;1.92;;;-3.00;99.90;;;;;;5097077;27;20413;-93
2021/12/25 04:14:21;;;;;;;9.85;2.17;;;-3.00;99.90;;;;;;5089084;28;20043;-93
2021/12/25 04:16:47;;;;;;;2.67;1.90;;;-3.00;99.90;;;;;;5080515;27;20031;-93
2021/12/25 04:19:13;;;;;;;2.72;1.63;;;-3.00;99.90;;;;;;5080940;27;20522;-93
2021/12/25 04:21:48;;;;;;;2.03;1.60;;;-3.10;99.90;;;;;;5094006;27;20178;-93
2021/12/25 04:24:14;;;;;;;2.65;1.60;;;-3.10;99.90;;;;;;5081139;27;20043;-93
2021/12/25 04:26:42;;;;;;;3.95;1.73;;;-3.10;99.90;;;;;;5082567;27;20046;-93
2021/12/25 04:42:52;;;;;;;;;;;-3.30;99.90;;;;;;5096613;27;20066;-92
2021/12/25 05:01:58;;;;;;;3.85;1.90;;;-3.40;99.90;;;;;;5095853;27;20050;-92
2021/12/25 05:04:29;;;;;;;4.25;1.98;;;-3.40;99.90;;;;;;5080696;27;20043;-92
2021/12/25 05:06:55;;;;;;;5.50;2.08;;;-3.40;99.90;;;;;;5079019;27;20043;-92
2021/12/25 05:09:21;;;;;;;3.33;1.90;;;-3.40;99.90;;;;;;5078713;27;20043;-91
2021/12/25 05:11:47;;;;;;;4.65;2.15;;;-3.40;99.90;;;;;;5078462;27;20039;-92
2021/12/25 05:14:12;;;;;;;3.25;1.85;;;-3.40;99.90;;;;;;5085081;27;20400;-91
2021/12/25 05:16:38;;;;;;;3.40;1.98;;;-3.40;99.90;;;;;;5075789;27;20115;-91
2021/12/25 05:19:04;;;;;;;3.55;2.03;;;-3.50;99.90;;;;;;5078793;28;20035;-92
2021/12/25 05:21:30;;;;;;;4.35;2.55;;;-3.50;99.90;;;;;;5071310;28;20569;-91
2021/12/25 05:23:58;;;;;;;5.63;2.38;;;-3.50;99.90;;;;;;5074502;27;20138;-92
2021/12/25 05:26:23;;;;;;;3.65;1.95;;;-3.50;99.90;;;;;;5077097;27;20035;-92
2021/12/25 05:28:59;;;;;;;3.95;2.10;;;-3.50;99.90;;;;;;5078364;27;20811;-91
2021/12/25 05:31:26;;;;;;;3.35;2.10;;;-3.50;99.90;;;;;;5079078;27;20043;-92
2021/12/25 05:33:52;;;;;;;3.58;2.50;;;-3.50;99.90;;;;;;5081296;28;20054;-92
2021/12/25 05:36:18;;;;;;;3.97;2.20;;;-3.50;99.90;;;;;;5095934;28;20594;-91
2021/12/25 05:38:44;;;;;;;5.22;1.98;;;-3.50;99.90;;;;;;5085910;28;20075;-89
2021/12/25 05:41:11;;;;;;;2.28;1.85;;;-3.50;99.90;;;;;;5076696;28;20028;-91
2021/12/25 05:43:37;;;;;;;5.70;2.28;;;-3.50;99.90;;;;;;5076941;28;20057;-92
2021/12/25 05:46:03;;;;;;;1.98;1.77;;;-3.60;99.90;;;;;;5072394;28;20054;-91
2021/12/25 05:48:29;;;;;;;3.35;1.92;;;-3.60;99.90;;;;;;5076780;28;20048;-91
2021/12/25 05:50:55;;;;;;;4.65;2.20;;;-3.60;99.90;;;;;;5076373;28;20176;-91
2021/12/25 05:53:20;;;;;;;6.50;2.28;;;-3.60;99.90;;;;;;5093023;28;20039;-91
2021/12/25 05:55:46;;;;;;;4.85;2.08;;;-3.70;99.90;;;;;;5076020;28;20058;-91
2021/12/25 05:58:11;;;;;;;4.60;2.08;;;-3.70;99.90;;;;;;5078764;28;20131;-90
2021/12/25 06:00:38;;;;;;;4.80;1.90;;;-3.70;99.90;;;;;;5088696;28;20055;-90
2021/12/25 06:03:04;;;;;;;5.53;2.20;;;-3.70;99.90;;;;;;5076776;28;20035;-91
2021/12/25 06:05:31;;;;;;;4.30;2.10;;;-3.60;99.90;;;;;;5078842;28;20043;-91
2021/12/25 06:07:57;;;;;;;4.30;2.30;;;-3.70;99.90;;;;;;5077775;28;20516;-91
2021/12/25 06:10:23;;;;;;;3.28;1.90;;;-3.70;99.90;;;;;;5076417;28;20055;-91
2021/12/25 06:12:50;;;;;;;2.45;2.25;;;-3.60;99.90;;;;;;5079387;28;20042;-90
2021/12/25 06:15:19;;;;;;;3.70;2.00;;;-3.70;99.90;;;;;;5090046;28;20056;-91
2021/12/25 06:17:45;;;;;;;2.90;1.77;;;-3.70;99.90;;;;;;5072851;28;20922;-91
2021/12/25 06:20:11;;;;;;;3.10;2.20;;;-3.70;99.90;;;;;;5073804;28;20047;-90
2021/12/25 06:22:36;;;;;;;4.32;1.80;;;-3.70;99.90;;;;;;5076495;28;21265;-91
2021/12/25 06:25:04;;;;;;;3.25;1.67;;;-3.70;99.90;;;;;;5098741;28;20035;-90
2021/12/25 06:27:30;;;;;;;2.05;1.90;;;-3.70;99.90;;;;;;5094213;28;20484;-90
2021/12/25 06:29:55;;;;;;;4.18;1.90;;;-3.70;99.90;;;;;;5094096;27;20042;-90
2021/12/25 06:32:21;;;;;;;3.80;2.00;;;-3.70;99.90;;;;;;5098725;27;20049;-88
2021/12/25 06:34:47;;;;;;;5.32;1.63;;;-3.70;99.90;;;;;;5090374;27;20889;-89
2021/12/25 06:37:14;;;;;;;5.70;2.38;;;-3.70;99.90;;;;;;5098001;27;20063;-89
2021/12/25 06:39:41;;;;;;;4.45;2.58;;;-3.70;99.90;;;;;;5084360;27;20128;-89
2021/12/25 06:42:08;;;;;;;3.28;1.83;;;-3.80;99.90;;;;;;5077957;27;20534;-89
2021/12/25 06:44:34;;;;;;;3.88;2.35;;;-3.80;99.90;;;;;;5094449;27;20059;-88
2021/12/25 06:47:00;;;;;;;4.50;1.90;;;-3.80;99.90;;;;;;5076257;27;20043;-89
2021/12/25 06:49:27;;;;;;;2.20;1.58;;;-3.90;99.90;;;;;;5081233;27;20047;-89
2021/12/25 06:51:53;;;;;;;9.27;1.63;;;-3.90;99.90;;;;;;5095812;27;20063;-89
2021/12/25 06:54:19;;;;;;;4.78;1.52;;;-3.90;99.90;;;;;;5097891;27;20091;-90
2021/12/25 06:56:46;;;;;;;3.60;1.70;;;-3.90;99.90;;;;;;5114901;27;20436;-91
2021/12/25 06:59:13;;;;;;;4.13;1.67;;;-3.90;99.90;;;;;;5089341;28;20055;-89
2021/12/25 07:01:39;;;;;;;2.63;1.40;;;-3.90;99.90;;;;;;5081241;27;20044;-90
2021/12/25 07:04:09;;;;;;;3.55;1.38;;;-3.90;99.90;;;;;;5097518;27;20044;-90
2021/12/25 07:06:35;;;;;;;6.93;1.75;;;-4.00;99.90;;;;;;5081877;27;20035;-90
2021/12/25 07:09:01;;;;;;;5.35;1.45;;;-4.00;99.90;;;;;;5097622;27;20126;-89
2021/12/25 07:11:27;;;;;;;1.50;1.30;;;-4.00;99.90;;;;;;5078838;27;20126;-90
2021/12/25 07:13:52;;;;;;;1.90;1.40;;;-4.00;99.90;;;;;;5095671;27;20047;-89
2021/12/25 07:16:18;;;;;;;6.75;1.63;;;-4.00;99.90;;;;;;5097807;27;20728;-90
2021/12/25 07:18:44;;;;;;;2.10;1.38;;;-3.90;99.90;;;;;;5077818;27;20071;-89
2021/12/25 07:21:10;;;;;;;2.47;1.50;;;-4.00;99.90;;;;;;5077485;27;20044;-89
2021/12/25 07:23:36;;;;;;;3.35;1.50;;;-4.00;99.90;;;;;;5080016;27;20570;-90
2021/12/25 07:26:03;;;;;;;2.35;1.25;;;-4.00;99.90;;;;;;5081014;27;20063;-89
2021/12/25 07:28:28;;;;;;;3.00;1.40;;;-3.90;99.90;;;;;;5097990;27;20122;-89
2021/12/25 07:30:56;;;;;;;4.32;1.42;;;-4.00;99.90;;;;;;5078739;27;20473;-90
2021/12/25 07:33:22;;;;;;;3.05;1.20;;;-4.00;99.90;;;;;;5079501;27;20470;-89
2021/12/25 07:35:48;;;;;;;1.55;1.30;;;-4.00;99.90;;;;;;5077402;28;20074;-89
2021/12/25 07:38:15;;;;;;;3.15;1.60;;;-4.00;99.90;;;;;;5108349;27;20075;-90
2021/12/25 07:40:40;;;;;;;2.90;1.50;;;-4.00;99.90;;;;;;5099749;27;20047;-89
2021/12/25 07:43:06;;;;;;;2.45;1.30;;;-4.00;99.90;;;;;;5099159;27;20065;-88
2021/12/25 07:45:32;;;;;;;1.92;1.50;;;-4.10;99.90;;;;;;5081117;27;20119;-89
2021/12/25 07:48:01;;;;;;;1.30;1.20;;;-4.10;99.90;;;;;;5081567;27;20050;-89
2021/12/25 07:50:29;;;;;;;3.22;1.50;;;-4.10;99.90;;;;;;5099355;27;20047;-90
2021/12/25 07:52:55;;;;;;;2.88;1.30;;;-4.10;99.90;;;;;;5090565;27;20404;-90
2021/12/25 07:55:20;;;;;;;3.47;1.55;;;-4.10;99.90;;;;;;5085264;27;20027;-90
2021/12/25 07:57:46;;;;;;;2.13;1.40;;;-4.10;99.90;;;;;;5079171;27;21167;-89
2021/12/25 08:00:13;;;;;;;2.67;1.70;;;-4.10;99.90;;;;;;5088657;27;20454;-89
2021/12/25 08:02:40;;;;;;;2.40;1.40;;;-4.20;99.90;;;;;;5095048;27;20074;-90
2021/12/25 08:05:06;;;;;;;6.47;1.63;;;-4.10;99.90;;;;;;5095620;27;20501;-89
2021/12/25 08:07:32;;;;;;;5.47;1.40;;;-4.10;99.90;;;;;;5080580;27;20113;-91
2021/12/25 08:10:11;;;;;;;8.10;2.95;;;-4.00;99.90;;;;;;5069543;27;20413;-91
2021/12/25 08:12:37;;;;;;;8.38;1.95;;;-4.10;99.90;;;;;;5092548;27;20047;-90
2021/12/25 08:15:03;;;;;;;4.97;1.60;;;-4.20;99.90;;;;;;5085230;27;20051;-91
2021/12/25 08:17:29;;;;;;;4.13;1.58;;;-4.10;99.90;;;;;;5099970;27;20045;-90
2021/12/25 08:19:54;;;;;;;4.63;1.50;;;-4.10;99.90;;;;;;5077459;28;20126;-90
2021/12/25 08:22:20;;;;;;;4.05;2.17;;;-4.10;99.90;;;;;;5076776;27;20473;-90
2021/12/25 08:24:46;;;;;;;4.88;1.70;;;-4.10;99.90;;;;;;5079199;27;20046;-91
2021/12/25 08:27:12;;;;;;;3.60;1.50;;;-4.10;99.90;;;;;;5079761;27;20039;-90
2021/12/25 08:29:38;;;;;;;6.80;1.52;;;-4.10;99.90;;;;;;5080701;27;20069;-91
2021/12/25 08:32:04;;;;;;;2.30;1.40;;;-4.10;99.90;;;;;;5079336;27;20063;-90
2021/12/25 08:34:30;;;;;;;4.65;1.75;;;-4.10;99.90;;;;;;5081387;27;20491;-91
2021/12/25 08:36:56;;;;;;;3.95;1.75;;;-4.10;99.90;;;;;;5094960;27;20046;-90
2021/12/25 08:39:21;;;;;;;5.07;1.88;;;-4.10;99.90;;;;;;5079859;27;20043;-91
2021/12/25 08:41:50;;;;;;;7.85;1.83;;;-4.10;99.90;;;;;;5096087;27;20056;-90
2021/12/25 08:47:12;;;;;;;3.47;1.85;;;-4.00;99.90;;;;;;5065835;27;20044;-91
2021/12/25 08:49:40;;;;;;;2.67;1.85;;;-4.00;99.90;;;;;;5078789;27;20177;-90
2021/12/25 08:52:10;;;;;;;2.92;1.65;;;-3.90;99.90;;;;;;5076707;27;20068;-90
2021/12/25 08:54:37;;;;;;;3.50;1.60;;;-3.90;99.90;;;;;;5091706;27;20115;-89
2021/12/25 08:57:04;;;;;;;2.70;1.60;;;-3.80;99.90;;;;;;5078255;27;20044;-90
2021/12/25 08:59:30;;;;;;;4.68;1.80;;;-3.70;99.90;;;;;;5079863;27;20126;-89
2021/12/25 09:01:56;;;;;;;3.00;2.45;;;-3.60;99.90;;;;;;5077508;27;20158;-89
2021/12/25 09:04:21;;;;;;;3.65;1.50;;;-3.50;99.90;;;;;;5080770;27;20118;-89
2021/12/25 09:06:47;;;;;;;3.10;1.50;;;-3.40;99.90;;;;;;5077038;27;20122;-89
2021/12/25 09:09:13;;;;;;;6.13;1.80;;;-3.20;99.90;;;;;;5078351;27;20076;-89
2021/12/25 09:11:40;;;;;;;3.67;1.83;;;-3.00;99.90;;;;;;5080295;27;20338;-89
2021/12/25 09:14:06;;;;;;;2.70;1.45;;;-3.00;99.90;;;;;;5087461;28;20681;-89
2021/12/25 09:16:32;;;;;;;2.53;1.40;;;-2.90;99.90;;;;;;5077830;27;20656;-89
2021/12/25 09:19:02;;;;;;;3.63;1.48;;;-2.90;99.90;;;;;;5080135;27;20054;-89
2021/12/25 09:21:27;;;;;;;13.55;1.88;;;-2.90;99.90;;;;;;5094339;27;20035;-90
2021/12/25 09:23:53;;;;;;;5.68;1.50;;;-2.90;99.90;;;;;;5077356;28;20047;-89
2021/12/25 09:26:19;;;;;;;5.10;1.70;;;-3.00;99.90;;;;;;5078036;27;20058;-89
2021/12/25 09:28:46;;;;;;;8.07;1.60;;;-3.00;99.90;;;;;;5079988;28;20071;-89
2021/12/25 09:31:12;;;;;;;3.42;1.77;;;-3.00;99.90;;;;;;5079485;27;20035;-89
2021/12/25 09:33:38;;;;;;;5.35;1.60;;;-3.00;99.90;;;;;;5079929;27;20047;-90
2021/12/25 09:36:04;;;;;;;7.57;1.52;;;-2.90;99.90;;;;;;5080722;28;20067;-90
2021/12/25 09:38:30;;;;;;;3.58;1.40;;;-2.80;99.90;;;;;;5077938;28;20052;-90
2021/12/25 09:40:58;;;;;;;1.73;1.58;;;-2.70;99.90;;;;;;5070822;28;20115;-91
2021/12/25 09:43:25;;;;;;;3.20;1.38;;;-2.70;99.90;;;;;;5087668;28;20094;-91
2021/12/25 09:45:51;;;;;;;6.18;1.52;;;-2.50;99.90;;;;;;5079427;28;20447;-90
2021/12/25 09:48:17;;;;;;;5.35;1.25;;;-2.40;99.90;;;;;;5077642;28;21366;-90
2021/12/25 09:50:43;;;;;;;20.90;1.98;;;-2.30;99.90;;;;;;5081159;28;20047;-91
2021/12/25 09:53:12;;;;;;;2.65;1.45;;;-2.20;99.90;;;;;;5077118;28;20110;-91
2021/12/25 09:55:38;;;;;;;18.05;1.98;;;-2.20;99.90;;;;;;5081688;28;20065;-91
2021/12/25 09:58:05;;;;;;;6.05;1.67;;;-2.10;99.90;;;;;;5081125;28;20036;-91
2021/12/25 10:00:33;;;;;;;2.50;1.48;;;-2.10;99.90;;;;;;5079158;28;20158;-90
2021/12/25 10:02:58;;;;;;;5.35;1.63;;;-1.90;99.90;;;;;;5077345;28;20035;-91
2021/12/25 10:05:27;;;;;;;7.55;1.50;;;-1.70;99.90;;;;;;5078068;27;20043;-91
2021/12/25 10:08:26;;;;;;;6.28;1.60;;;-1.80;99.90;;;;;;5081580;27;20048;-91
2021/12/25 10:11:01;;;;;;;3.35;1.70;;;-1.70;99.90;;;;;;5082373;27;20122;-91
2021/12/25 10:13:37;;;;;;;1.70;1.60;;;-1.50;99.90;;;;;;5091231;27;20035;-90
2021/12/25 10:16:26;;;;;;;2.55;1.52;;;-1.70;99.90;;;;;;5084016;27;20183;-90
2021/12/25 10:18:54;;;;;;;2.72;1.40;;;-1.70;99.90;;;;;;5096350;27;20085;-90
2021/12/25 10:21:24;;;;;;;4.20;2.25;;;-1.80;99.90;;;;;;5090981;27;20131;-90
2021/12/25 10:24:18;;;;;;;4.85;1.55;;;-1.60;99.90;;;;;;5086595;28;20046;-90
2021/12/25 10:26:46;;;;;;;3.53;1.70;;;-1.40;99.90;;;;;;5098556;27;20050;-91
2021/12/25 10:29:21;;;;;;;4.57;1.48;;;-1.40;99.90;;;;;;5084499;28;20054;-91
2021/12/25 10:31:48;;;;;;;4.60;1.40;;;-1.50;99.90;;;;;;5093201;27;20079;-91
2021/12/25 10:34:21;;;;;;;2.38;1.50;;;-1.60;99.90;;;;;;5085142;27;20170;-91
2021/12/25 10:36:48;;;;;;;6.77;1.70;;;-1.70;99.90;;;;;;5085110;27;20043;-91
2021/12/25 10:39:23;;;;;;;3.60;1.73;;;-1.90;99.90;;;;;;5070641;27;20338;-91
2021/12/25 10:41:55;;;;;;;3.70;1.63;;;-1.80;99.90;;;;;;5082780;27;20048;-91
2021/12/25 10:44:31;;;;;;;4.05;1.67;;;-1.90;99.90;;;;;;5088459;27;20043;-92
2021/12/25 10:46:58;;;;;;;1.48;1.38;;;-1.90;99.90;;;;;;5083424;27;20075;-90
2021/12/25 10:49:33;;;;;;;2.33;1.77;;;-2.00;99.90;;;;;;5082828;27;20035;-90
2021/12/25 10:52:28;;;;;;;3.58;1.50;;;-1.90;99.90;;;;;;5083234;27;20071;-91
2021/12/25 10:55:10;;;;;;;5.32;1.80;;;-1.90;99.90;;;;;;5082407;27;20036;-90
2021/12/25 10:57:42;;;;;;;4.88;1.80;;;-1.80;99.90;;;;;;5101399;27;20039;-91
2021/12/25 11:00:21;;;;;;;5.07;1.60;;;-1.70;99.90;;;;;;5079538;27;20036;-90
2021/12/25 11:03:03;;;;;;;3.35;1.70;;;-1.60;99.90;;;;;;5089585;27;20053;-91
2021/12/25 11:05:44;;;;;;;1.70;1.58;;;-1.50;99.90;;;;;;5082504;27;20122;-91
2021/12/25 11:08:19;;;;;;;2.92;1.60;;;-1.50;99.90;;;;;;5089276;27;20042;-91
2021/12/25 11:10:46;;;;;;;3.35;1.60;;;-1.30;99.90;;;;;;5091781;27;20046;-90
2021/12/25 11:13:18;;;;;;;5.97;1.65;;;-1.20;99.90;;;;;;5094498;27;20035;-91
2021/12/25 11:15:44;;;;;;;11.15;1.90;;;-1.10;99.90;;;;;;5083044;27;20047;-91
2021/12/25 11:18:10;;;;;;;4.53;1.65;;;-1.20;99.90;;;;;;5084394;27;20456;-92
2021/12/25 11:20:38;;;;;;;6.28;1.55;;;-1.20;99.90;;;;;;5081907;27;20062;-90
2021/12/25 11:23:10;;;;;;;5.57;1.90;;;-1.00;99.90;;;;;;5081643;27;20043;-91
2021/12/25 11:25:39;;;;;;;3.95;1.92;;;-1.10;99.90;;;;;;5086545;27;20488;-91
2021/12/25 11:28:09;;;;;;;3.92;1.58;;;-1.00;99.90;;;;;;5115361;27;20074;-90
2021/12/25 11:30:47;;;;;;;11.18;1.80;;;-1.00;99.90;;;;;;5091674;27;20087;-91
2021/12/25 11:33:13;;;;;;;4.18;1.80;;;-0.80;99.90;;;;;;5093380;27;20039;-91
2021/12/25 11:35:39;;;;;;;2.80;1.40;;;-0.60;99.90;;;;;;5092469;28;20058;-90
2021/12/25 11:38:07;;;;;;;4.20;1.80;;;-0.60;99.90;;;;;;5092329;27;20044;-91
2021/12/25 11:40:37;;;;;;;3.00;1.70;;;-0.50;99.90;;;;;;5096349;27;20035;-90
2021/12/25 11:43:04;;;;;;;2.08;1.60;;;-0.70;99.90;;;;;;5088805;27;20136;-90
2021/12/25 11:45:42;;;;;;;6.85;1.65;;;-1.00;99.90;;;;;;5082386;27;20076;-90
2021/12/25 11:48:17;;;;;;;3.47;1.70;;;-1.10;99.90;;;;;;5097576;27;20050;-90
2021/12/25 11:50:47;;;;;;;3.90;1.70;;;-1.30;99.90;;;;;;5096918;27;20138;-90
2021/12/25 11:53:31;;;;;;;4.28;1.95;;;-1.30;99.90;;;;;;5097346;27;20039;-90
2021/12/25 11:58:44;;;;;;;1.67;1.58;;;-1.30;99.90;;;;;;5106940;27;20551;-91
2021/12/25 12:01:16;;;;;;;5.60;1.80;;;-1.40;99.90;;;;;;5084155;27;20141;-89
2021/12/25 12:03:57;;;;;;;3.03;1.60;;;-1.40;99.90;;;;;;5077419;28;20047;-90
2021/12/25 12:06:47;;;;;;;6.85;1.63;;;-1.40;99.90;;;;;;5076342;27;20511;-90
2021/12/25 12:09:31;;;;;;;7.82;2.10;;;-1.50;99.90;;;;;;5092272;27;20043;-91
2021/12/25 12:12:13;;;;;;;2.83;1.55;;;-1.50;99.90;;;;;;5081425;27;20071;-90
2021/12/25 12:14:39;;;;;;;3.47;1.65;;;-1.50;99.90;;;;;;5082636;27;20653;-90
2021/12/25 12:17:31;;;;;;;3.47;1.65;;;-1.50;99.90;;;;;;5081917;27;20039;-91
2021/12/25 12:20:00;;;;;;;2.17;1.70;;;-1.50;99.90;;;;;;5072975;27;20055;-90
2021/12/25 12:22:46;;;;;;;3.17;1.42;;;-1.50;99.90;;;;;;5092373;27;20511;-89
2021/12/25 12:25:45;;;;;;;1.60;1.45;;;-1.50;99.90;;;;;;5097364;27;20135;-90
2021/12/25 12:28:11;;;;;;;3.60;1.67;;;-1.50;99.90;;;;;;5110068;28;20513;-90
2021/12/25 12:30:43;;;;;;;3.92;2.00;;;-1.50;99.90;;;;;;5078390;27;20105;-88
2021/12/25 12:33:15;;;;;;;7.80;1.95;;;-1.50;99.90;;;;;;5082596;27;20043;-89
2021/12/25 12:35:42;;;;;;;4.68;1.90;;;-1.60;99.90;;;;;;5095829;27;20081;-89
2021/12/25 12:38:39;;;;;;;5.10;1.95;;;-1.50;99.90;;;;;;5078211;28;20489;-89
2021/12/25 12:41:17;;;;;;;2.58;1.70;;;-1.60;99.90;;;;;;5080268;28;20053;-90
2021/12/25 12:43:53;;;;;;;6.68;1.88;;;-1.60;99.90;;;;;;5080592;27;20603;-89
2021/12/25 12:46:19;;;;;;;3.00;1.80;;;-1.60;99.90;;;;;;5077768;27;20059;-89
2021/12/25 12:49:05;;;;;;;5.50;1.90;;;-1.60;99.90;;;;;;5080671;27;20043;-89
2021/12/25 12:51:32;;;;;;;2.22;2.03;;;-1.60;99.90;;;;;;5096229;27;20039;-90
2021/12/25 12:53:58;;;;;;;3.47;1.70;;;-1.50;99.90;;;;;;5084550;27;20035;-90
2021/12/25 12:56:24;;;;;;;4.00;1.88;;;-1.60;99.90;;;;;;5096301;27;20035;-89
2021/12/25 12:58:55;;;;;;;5.15;1.88;;;-1.60;99.90;;;;;;5095922;27;20035;-89
2021/12/25 13:01:23;;;;;;;2.97;1.60;;;-1.60;99.90;;;;;;5085598;27;20204;-89
2021/12/25 13:03:56;;;;;;;5.10;2.05;;;-1.60;99.90;;;;;;5081845;27;20051;-89
2021/12/25 13:06:25;;;;;;;3.40;1.80;;;-1.60;99.90;;;;;;5079877;27;20035;-89
2021/12/25 13:08:52;;;;;;;8.73;1.70;;;-1.60;99.90;;;;;;5081874;27;20039;-89
2021/12/25 13:11:26;;;;;;;3.97;2.20;;;-1.60;99.90;;;;;;5080900;27;20060;-89
2021/12/25 13:13:54;;;;;;;;;;;-1.60;99.90;;;;;;5085967;27;20125;-89
2021/12/25 13:16:24;;;;;;;3.85;1.80;;;-1.50;99.90;;;;;;5082174;27;19934;-88
2021/12/25 13:18:54;;;;;;;5.20;1.73;;;-1.50;99.90;;;;;;5074481;27;20126;-88
2021/12/25 13:21:26;;;;;;;2.28;1.83;;;-1.50;99.90;;;;;;5078731;27;20036;-89
2021/12/25 13:23:56;;;;;;;6.00;2.05;;;-1.50;99.90;;;;;;5081618;27;20413;-88
2021/12/25 13:26:26;;;;;;;4.85;1.70;;;-1.60;99.90;;;;;;5080222;27;20043;-88
2021/12/25 13:28:52;;;;;;;4.10;1.85;;;-1.50;99.90;;;;;;5068996;28;20075;-88
2021/12/25 13:31:22;;;;;;;2.80;1.98;;;-1.50;99.90;;;;;;5080105;27;20036;-89
2021/12/25 13:33:52;;;;;;;5.85;1.80;;;-1.50;99.90;;;;;;5088220;28;20043;-89
2021/12/25 13:36:21;;;;;;;6.63;2.00;;;-1.60;99.90;;;;;;5092549;27;20035;-88
2021/12/25 13:38:55;;;;;;;3.33;1.98;;;-1.60;99.90;;;;;;5079757;28;20059;-89
2021/12/25 13:41:32;;;;;;;5.60;1.90;;;-1.60;99.90;;;;;;5075985;28;20150;-89
2021/12/25 13:44:18;;;;;;;2.58;2.00;;;-1.60;99.90;;;;;;5074142;28;20051;-88
2021/12/25 13:46:57;;;;;;;5.38;2.00;;;-1.60;99.90;;;;;;5078472;28;20074;-88
2021/12/25 13:49:39;;;;;;;3.45;2.00;;;-1.70;99.90;;;;;;5078082;28;20043;-89
2021/12/25 13:52:12;;;;;;;3.72;1.70;;;-1.70;99.90;;;;;;5083193;28;20129;-89
2021/12/25 13:54:42;;;;;;;3.60;1.95;;;-1.70;99.90;;;;;;5081636;28;20043;-89
2021/12/25 13:57:09;;;;;;;3.60;1.70;;;-1.70;99.90;;;;;;5078104;28;20232;-89
2021/12/25 13:59:35;;;;;;;2.10;1.77;;;-1.70;99.90;;;;;;5074082;28;20335;-88
2021/12/25 14:02:06;;;;;;;4.97;2.08;;;-1.70;99.90;;;;;;5079318;28;20119;-88
2021/12/25 14:04:32;;;;;;;4.85;1.90;;;-1.80;99.90;;;;;;5081121;28;20062;-89
2021/12/25 14:06:58;;;;;;;5.60;2.40;;;-1.70;99.90;;;;;;5079522;28;20046;-88
2021/12/25 14:09:24;;;;;;;3.28;2.22;;;-1.80;99.90;;;;;;5081345;28;20061;-89
2021/12/25 14:11:52;;;;;;;3.42;1.80;;;-1.80;99.90;;;;;;5091328;28;20751;-89
2021/12/25 14:14:20;;;;;;;4.35;1.88;;;-1.80;99.90;;;;;;5078049;28;20047;-89
2021/12/25 14:16:47;;;;;;;4.63;2.20;;;-1.80;99.90;;;;;;5079371;28;20042;-89
2021/12/25 14:19:13;;;;;;;1.95;1.80;;;-1.70;99.90;;;;;;5079539;28;20047;-88
2021/12/25 14:21:50;;;;;;;4.88;2.10;;;-1.80;99.90;;;;;;5081578;28;20046;-89
2021/12/25 14:24:16;;;;;;;5.80;2.10;;;-1.80;99.90;;;;;;5077867;28;20079;-89
2021/12/25 14:26:42;;;;;;;5.45;2.15;;;-1.80;99.90;;;;;;5082852;28;20061;-88
2021/12/25 14:29:20;;;;;;;6.70;2.10;;;-1.90;99.90;;;;;;5081247;28;20556;-89
2021/12/25 14:31:45;;;;;;;7.88;2.00;;;-1.90;99.90;;;;;;5090821;28;20063;-87
2021/12/25 14:34:11;;;;;;;3.63;2.00;;;-1.90;99.90;;;;;;5082575;28;20500;-88
2021/12/25 14:36:39;;;;;;;6.50;2.33;;;-1.90;99.90;;;;;;5083395;28;20047;-88
2021/12/25 14:39:07;;;;;;;3.85;1.77;;;-2.00;99.90;;;;;;5084953;28;20040;-88
2021/12/25 14:41:36;;;;;;;3.28;1.67;;;-2.00;99.90;;;;;;5081027;28;20496;-88
2021/12/25 14:44:27;;;;;;;3.53;2.10;;;-2.00;99.90;;;;;;5093172;28;20070;-89
2021/12/25 14:47:15;;;;;;;2.38;1.92;;;-2.10;99.90;;;;;;5079334;28;20047;-89
2021/12/25 14:49:43;;;;;;;5.05;2.72;;;-2.10;99.90;;;;;;5081240;28;20027;-88
2021/12/25 14:52:11;;;;;;;4.68;2.60;;;-2.10;99.90;;;;;;5084734;27;20039;-89
2021/12/25 14:54:37;;;;;;;7.50;2.60;;;-2.20;99.90;;;;;;5081594;27;20047;-88
2021/12/25 14:57:03;;;;;;;3.63;2.47;;;-2.30;99.90;;;;;;5083930;27;20046;-89
2021/12/25 14:59:30;;;;;;;7.45;2.10;;;-2.30;99.90;;;;;;5096745;27;20122;-89
2021/12/25 15:01:59;;;;;;;3.03;1.92;;;-2.30;99.90;;;;;;5084551;27;20055;-88
2021/12/25 15:04:28;;;;;;;4.30;2.20;;;-2.40;99.90;;;;;;5081610;27;20036;-88
2021/12/25 15:07:08;;;;;;;3.15;2.10;;;-2.40;99.90;;;;;;5087437;27;20039;-87
2021/12/25 15:09:39;;;;;;;5.43;2.47;;;-2.40;99.90;;;;;;5083365;27;20042;-88
2021/12/25 15:12:15;;;;;;;6.82;2.67;;;-2.50;99.90;;;;;;5098786;27;20055;-89
2021/12/25 15:14:45;;;;;;;2.95;2.17;;;-2.50;99.90;;;;;;5097471;27;20039;-89
2021/12/25 15:17:16;;;;;;;4.22;2.53;;;-2.60;99.90;;;;;;5080134;27;20040;-88
2021/12/25 15:19:44;;;;;;;4.07;2.60;;;-2.60;99.90;;;;;;5080286;27;20036;-88
2021/12/25 15:22:19;;;;;;;3.97;2.33;;;-2.70;99.90;;;;;;5081498;27;20042;-88
2021/12/25 15:24:56;;;;;;;3.95;1.90;;;-2.70;99.90;;;;;;5081144;27;20099;-89
2021/12/25 15:27:32;;;;;;;3.13;2.10;;;-2.70;99.90;;;;;;5080953;27;20158;-88
2021/12/25 15:30:08;;;;;;;4.90;2.15;;;-2.80;99.90;;;;;;5081381;27;20527;-88
2021/12/25 15:32:50;;;;;;;5.32;2.38;;;-2.90;99.90;;;;;;5083763;27;20036;-88
2021/12/25 15:35:26;;;;;;;3.22;2.40;;;-2.90;99.90;;;;;;5081425;27;20067;-88
2021/12/25 15:37:52;;;;;;;4.05;2.40;;;-3.00;99.90;;;;;;5081052;27;20526;-88
2021/12/25 15:40:25;;;;;;;5.13;2.33;;;-3.00;99.90;;;;;;5081493;27;20054;-88
2021/12/25 15:42:51;;;;;;;4.28;2.58;;;-3.00;99.90;;;;;;5081338;27;20126;-88
2021/12/25 15:45:18;;;;;;;4.22;2.55;;;-3.00;99.90;;;;;;5081874;27;20050;-88
2021/12/25 15:47:46;;;;;;;7.90;2.78;;;-3.10;99.90;;;;;;5080131;27;20705;-88
2021/12/25 15:50:17;;;;;;;3.70;2.20;;;-3.10;99.90;;;;;;5079489;27;20999;-88
2021/12/25 15:52:42;;;;;;;3.75;2.72;;;-3.10;99.90;;;;;;5075548;27;20043;-88